Latest Coastal Weather Observations for Cape Moreton

IDQ60701

Issued at 10:52 pm EST Friday 28 August 2015 (issued every 10 minutes, with the page automatically refreshed every 10 minutes)

About coastal observations | Map of coastal stations | Coastal observations for QLD | Marine services | Other Formats
Station Details ID: 040043 Name: CAPE MORETON LIGHTHOUSE Lat: -27.03 Lon: 153.47 Height: 99.9 m
Data from the previous 72 hours. | See also: Recent months at Cape Moreton
Date/Time
EST
Temp

°C
Wind Pressure Rain
since 9am
mm
Weather Cloud Vis
km
Sea
Height
m
Swell
Dir
 
Speed
knots
Gust
knots
hPa Trend Height
m
Period
s
Dir
28/10:30pm 18.3 SSE 9 11 1021.9 - 0.0 - - - - - - -
28/10:00pm 18.4 SSE 7 9 1022.2 - 0.0 - - - - - - -
28/09:30pm 18.3 SE 8 10 1022.3 - 0.0 - - - - - - -
28/09:00pm 18.4 ESE 9 11 1022.2 - 0.0 - - - - - - -
28/08:30pm 18.5 ESE 9 11 1022.0 - 0.0 - - - - - - -
28/08:00pm 18.4 ESE 11 13 1021.7 - 0.0 - - - - - - -
28/07:30pm 18.4 ESE 11 13 1021.2 - 0.0 - - - - - - -
28/07:00pm 18.2 ESE 12 14 1020.7 - 0.0 - - - - - - -
28/06:30pm 18.4 E 13 15 1020.0 - 0.0 - - - - - - -
28/06:00pm 18.2 E 12 14 1019.8 - 0.0 - - - - - - -
28/05:30pm 18.2 ESE 13 15 1019.5 - 0.0 - - - - - - -
28/05:00pm 18.5 ESE 12 14 1019.3 - 0.0 - - - - - - -
28/04:30pm 18.8 ESE 11 13 1019.2 - 0.0 - - - - - - -
28/04:00pm 18.8 ESE 10 11 1019.2 - 0.0 - - - - - - -
28/03:30pm 18.8 ESE 9 11 1019.1 - 0.0 - - - - - - -
28/03:00pm 19.2 ESE 10 12 1019.1 - 0.0 - - - - - - -
28/02:30pm 19.9 SE 9 10 1019.4 - 0.0 - - - - - - -
28/02:00pm 19.9 SE 10 12 1019.5 - 0.0 - - - - - - -
28/01:30pm 19.8 SSE 9 11 1019.7 - 0.0 - - - - - - -
28/01:00pm 19.6 SSE 11 14 1020.0 - 0.0 - - - - - - -
28/12:30pm 20.4 S 10 13 1020.3 - 0.0 - - - - - - -
28/12:00pm 20.1 SSE 11 16 1020.7 - 0.0 - - - - - - -
28/11:30am 20.3 S 10 14 1021.0 - 0.0 - - - - - - -
28/11:00am 19.8 S 8 10 1021.8 - 0.0 - - - - - - -
28/10:30am 20.6 SSW 6 9 1021.9 - 0.0 - - - - - - -
28/10:00am 20.5 SSW 5 7 1022.1 - 0.0 - - - - - - -
28/09:30am 19.2 SW 7 10 1022.1 - 0.0 - - - - - - -
28/09:00am 17.7 SW 8 11 1022.1 - 13.4 - - - - - - -
28/08:30am 16.8 SW 7 9 1022.1 - 13.4 - - - - - - -
28/08:00am 16.8 SW 10 15 1021.7 - 13.4 - - - - - - -
28/07:30am 16.2 SW 9 12 1021.5 - 13.4 - - - - - - -
28/07:00am 16.2 SW 9 13 1021.2 - 13.4 - - - - - - -
28/06:30am 16.1 SSW 7 10 1020.7 - 13.4 - - - - - - -
28/06:00am 16.4 SSW 8 10 1020.6 - 13.4 - - - - - - -
28/05:30am 16.5 SW 7 9 1020.3 - 13.4 - - - - - - -
28/05:00am 16.5 SW 9 11 1020.0 - 13.4 - - - - - - -
28/04:30am 16.6 WSW 9 10 1019.8 - 13.4 - - - - - - -
28/04:00am 16.6 W 7 8 1019.7 - 13.4 - - - - - - -
28/03:30am 16.6 W 5 6 1019.4 - 12.8 - - - - - - -
28/03:00am 16.5 W 7 8 1019.7 - 12.6 Rain - - - - - -
28/02:30am 16.4 W 7 10 1020.2 - 10.6 - - - - - - -
28/02:00am 16.7 WSW 9 11 1020.5 - 8.0 - - - - - - -
28/01:30am 16.6 WSW 9 10 1020.4 - 8.0 - - - - - - -
28/01:00am 16.5 WSW 8 9 1020.6 - 8.0 - - - - - - -
28/12:30am 16.5 WSW 8 9 1020.7 - 7.8 - - - - - - -
28/12:00am 16.6 W 9 11 1021.0 - 7.8 - - - - - - -
 
Date/Time
EST
Temp

°C
Wind Pressure Rain
since 9am
mm
Weather Cloud Vis
km
Sea
Height
m
Swell
Dir
 
Speed
knots
Gust
knots
hPa Trend Height
m
Period
s
Dir
27/11:30pm 16.8 WSW 8 9 1020.9 - 7.8 - - - - - - -
27/11:00pm 18.3 NW 6 7 1021.0 - 7.8 - - - - - - -
27/10:30pm 18.0 NE 9 11 1020.3 - 7.8 - - - - - - -
27/10:00pm 17.6 NNE 6 7 1020.9 - 7.8 - - - - - - -
27/09:30pm 17.6 NNE 7 7 1021.2 - 7.2 - - - - - - -
27/09:00pm 17.0 ESE 5 6 1021.1 - 7.2 - - - - - - -
27/08:30pm 16.8 ESE 6 7 1021.1 - 7.2 - - - - - - -
27/08:00pm 16.4 E 9 10 1020.9 - 7.2 - - - - - - -
27/07:30pm 15.8 E 9 10 1020.9 - 7.2 - - - - - - -
27/07:00pm 15.4 ENE 11 14 1020.8 - 7.2 - - - - - - -
27/06:30pm 15.2 ENE 10 13 1020.4 - 7.0 - - - - - - -
27/06:00pm 16.5 S 5 7 1020.6 - 1.6 Recent precip. - - - - - -
27/05:30pm 16.1 SSW 9 12 1020.4 - 1.4 - - - - - - -
27/05:00pm 15.2 SW 12 15 1020.1 - 0.8 - - - - - - -
27/04:30pm 15.8 SW 15 21 1019.6 - 0.0 - - - - - - -
27/04:00pm 16.9 SW 13 20 1019.6 - 0.0 - - - - - - -
27/03:30pm 19.5 WSW 8 9 1019.6 - 0.0 - - - - - - -
27/03:00pm 20.0 WSW 4 5 1019.3 - 0.0 - - - - - - -
27/02:30pm 20.8 NW 4 5 1019.2 - 0.0 - - - - - - -
27/02:00pm 20.2 NW 7 8 1019.2 - 0.0 - - - - - - -
27/01:30pm 19.8 NW 7 9 1019.4 - 0.0 - - - - - - -
27/01:00pm 20.4 NW 7 8 1019.5 - 0.0 - - - - - - -
27/12:30pm 21.0 NW 6 8 1019.8 - 0.0 - - - - - - -
27/12:00pm 21.1 WNW 6 9 1020.5 - 0.0 - - - - - - -
27/11:30am 20.2 NNW 4 6 1020.6 - 0.0 - - - - - - -
27/11:00am 21.0 NW 3 8 1020.9 - 0.0 - - - - - - -
27/10:30am 21.0 WNW 6 9 1021.0 - 0.0 - - - - - - -
27/10:00am 21.2 WNW 7 10 1021.1 - 0.0 - - - - - - -
27/09:30am 21.3 W 6 8 1021.3 - 0.0 - - - - - - -
27/09:00am 20.3 WNW 8 11 1021.6 - 0.0 - - - - - - -
27/08:30am 20.1 WNW 7 11 1021.7 - 0.0 - - - - - - -
27/08:00am 19.7 NW 8 12 1021.5 - 0.0 - - - - - - -
27/07:30am 19.6 NW 9 12 1021.2 - 0.0 - - - - - - -
27/07:00am 19.2 NW 12 15 1021.0 - 0.0 - - - - - - -
27/06:30am 19.2 NNW 9 12 1020.5 - 0.0 - - - - - - -
27/06:00am 19.2 NNW 9 12 1020.4 - 0.0 - - - - - - -
27/05:30am 19.2 NW 10 13 1020.3 - 0.0 - - - - - - -
27/05:00am 19.2 NW 11 15 1020.2 - 0.0 - - - - - - -
27/04:30am 19.2 NW 13 16 1019.8 - 0.0 - - - - - - -
27/04:00am 19.2 NW 12 16 1019.5 - 0.0 - - - - - - -
27/03:30am 19.2 NW 13 17 1019.7 - 0.0 - - - - - - -
27/03:00am 19.3 NW 12 16 1019.8 - 0.0 - - - - - - -
27/02:30am 19.4 NW 13 17 1019.9 - 0.0 - - - - - - -
27/02:00am 19.4 NNW 13 18 1020.1 - 0.0 - - - - - - -
27/01:30am 19.5 NW 14 17 1020.1 - 0.0 - - - - - - -
27/01:00am 19.5 NW 14 17 1020.5 - 0.0 - - - - - - -
27/12:30am 19.6 NNW 13 18 1020.7 - 0.0 - - - - - - -
27/12:00am 19.8 NW 14 19 1020.9 - 0.0 - - - - - - -
 
Date/Time
EST
Temp

°C
Wind Pressure Rain
since 9am
mm
Weather Cloud Vis
km
Sea
Height
m
Swell
Dir
 
Speed
knots
Gust
knots
hPa Trend Height
m
Period
s
Dir
26/11:30pm 19.9 NNW 14 19 1021.1 - 0.0 - - - - - - -
26/11:00pm 19.9 NNW 13 19 1020.9 - 0.0 - - - - - - -
26/10:30pm 19.8 NNW 12 18 1021.1 - 0.0 - - - - - - -
26/10:00pm 20.1 NNW 11 15 1021.2 - 0.0 - - - - - - -
26/09:30pm 20.0 NNW 12 15 1020.9 - 0.0 - - - - - - -
26/09:00pm 20.1 NNW 11 15 1020.8 - 0.0 - - - - - - -
26/08:30pm 20.2 NNW 12 16 1020.8 - 0.0 - - - - - - -
26/08:00pm 20.2 NNW 13 16 1020.5 - 0.0 - - - - - - -
26/07:30pm 20.3 NNW 12 16 1020.2 - 0.0 - - - - - - -
26/07:00pm 20.2 N 13 16 1019.9 - 0.0 - - - - - - -
26/06:30pm 20.2 N 14 17 1019.4 - 0.0 - - - - - - -
26/06:00pm 20.2 N 14 16 1018.9 - 0.0 - - - - - - -
26/05:30pm 19.7 N 11 14 1018.5 - 0.0 - - - - - - -
26/05:00pm 20.1 NNE 10 14 1018.3 - 0.0 - - - - - - -
26/04:30pm 20.6 N 8 11 1017.9 - 0.0 - - - - - - -
26/04:00pm 20.5 NNE 12 15 1017.8 - 0.0 - - - - - - -
26/03:30pm 21.0 NNE 9 12 1017.9 - 0.0 - - - - - - -
26/03:00pm 20.8 NNE 10 12 1018.0 - 0.0 - - - - - - -
26/02:30pm 22.2 N 8 10 1018.2 - 0.0 - - - - - - -
26/02:00pm 21.5 N 7 9 1018.4 - 0.0 - - - - - - -
26/01:30pm 21.6 N 7 8 1018.7 - 0.0 - - - - - - -
26/01:00pm 21.4 NNW 7 8 1019.1 - 0.0 - - - - - - -
26/12:30pm 21.6 NNW 7 9 1019.7 - 0.0 - - - - - - -
26/12:00pm 21.5 NW 7 9 1020.4 - 0.0 - - - - - - -
26/11:30am 21.8 NNE 5 8 1020.5 - 0.0 - - - - - - -
26/11:00am 21.5 ENE 5 6 1020.8 - 0.0 - - - - - - -
26/10:30am 21.4 ESE 5 7 1021.2 - 0.0 - - - - - - -
26/10:00am 20.9 E 4 5 1021.3 - 0.0 - - - - - - -
26/09:30am 21.2 SE 3 6 1021.4 - 0.0 - - - - - - -
26/09:00am 20.2 WSW 4 8 1021.4 - 0.0 - - - - - - -
26/08:30am 20.8 SSW 4 6 1021.2 - 0.0 - - - - - - -
26/08:00am 19.4 WSW 6 7 1020.9 - 0.0 - - - - - - -
26/07:30am 18.6 WSW 7 8 1020.8 - 0.0 - - - - - - -
26/07:00am 18.8 W 8 10 1020.4 - 0.0 - - - - - - -
26/06:30am 18.5 W 9 11 1020.1 - 0.0 - - - - - - -
26/06:00am 18.7 WNW 9 10 1019.5 - 0.0 - - - - - - -
26/05:30am 18.7 NW 9 11 1019.2 - 0.0 - - - - - - -
26/05:00am 18.7 WNW 9 12 1018.8 - 0.0 - - - - - - -
26/04:30am 18.9 WNW 9 12 1018.8 - 0.0 - - - - - - -
26/04:00am 18.9 NW 9 10 1018.3 - 0.0 - - - - - - -
26/03:30am 19.0 NW 9 12 1017.9 - 0.0 - - - - - - -
26/03:00am 19.2 NW 9 12 1018.2 - 0.0 - - - - - - -
26/02:30am 19.2 NW 9 13 1018.4 - 0.0 - - - - - - -
26/02:00am 19.4 NW 13 16 1018.4 - 0.0 - - - - - - -
26/01:30am 19.5 NW 13 18 1018.6 - 0.0 - - - - - - -
26/01:00am 19.6 NW 14 19 1018.5 - 0.0 - - - - - - -
26/12:30am 19.6 NW 12 16 1018.5 - 0.0 - - - - - - -
26/12:00am 19.7 NW 13 17 1018.7 - 0.0 - - - - - - -
 
Date/Time
EST
Temp

°C
Wind Pressure Rain
since 9am
mm
Weather Cloud Vis
km
Sea
Height
m
Swell
Dir
 
Speed
knots
Gust
knots
hPa Trend Height
m
Period
s
Dir
25/11:30pm 19.7 NW 14 17 1018.7 - 0.0 - - - - - - -
25/11:00pm 19.8 NW 13 16 1018.7 - 0.0 - - - - - - -

Other Formats:

Comma delimited format used in spreadsheet applications
http://www.bom.gov.au/fwo/IDQ60701/IDQ60701.94594.axf

JavaScript Object Notation format (JSON) in row-major order
http://www.bom.gov.au/fwo/IDQ60701/IDQ60701.94594.json